createdAt,value
2023-02-24T00:30:53.650Z,0
2023-02-24T00:31:34.361Z,0
2023-02-24T00:32:15.101Z,0
2023-02-24T00:32:55.437Z,0
2023-02-24T00:33:35.983Z,0
2023-02-24T00:34:16.565Z,0
2023-02-24T00:34:57.156Z,0
2023-02-24T00:35:37.727Z,0
2023-02-24T00:36:18.183Z,0
2023-02-24T00:41:43.618Z,0
2023-02-24T00:42:25.166Z,0
2023-02-24T00:43:05.656Z,0
2023-02-24T00:43:46.229Z,0
2023-02-24T00:44:26.871Z,0
2023-02-24T00:45:07.355Z,0
2023-02-24T00:45:47.948Z,0
2023-02-24T00:46:28.639Z,0
2023-02-24T00:51:13.531Z,0
2023-02-24T00:51:54.240Z,0
2023-02-24T00:52:34.776Z,0
2023-02-24T00:53:15.265Z,0
2023-02-24T00:53:55.879Z,0
2023-02-24T00:54:36.537Z,0
2023-02-24T00:55:17.079Z,0
2023-02-24T00:55:57.661Z,0
2023-02-24T00:56:38.256Z,0
2023-02-24T01:02:43.415Z,0
2023-02-24T01:03:24.022Z,0
2023-02-24T01:04:04.675Z,0
2023-02-24T01:04:45.227Z,0
2023-02-24T01:05:25.823Z,0
2023-02-24T01:06:06.314Z,0
2023-02-24T01:06:46.890Z,0
2023-02-24T01:08:08.180Z,0
2023-02-24T01:14:13.365Z,0
2023-02-24T01:14:53.883Z,0
2023-02-24T01:15:34.436Z,0
2023-02-24T01:16:15.239Z,0
2023-02-24T01:16:55.778Z,0
2023-02-24T01:17:36.409Z,0
2023-02-24T01:18:16.989Z,0
2023-02-24T01:18:57.603Z,0
2023-02-24T01:19:38.158Z,0
2023-02-24T01:25:44.117Z,0
2023-02-24T01:26:24.252Z,0
2023-02-24T01:27:04.865Z,0
2023-02-24T01:27:45.538Z,0
2023-02-24T01:28:26.028Z,0
2023-02-24T01:29:06.638Z,0
2023-02-24T01:29:47.355Z,0
2023-02-24T01:30:27.920Z,0
2023-02-24T01:31:08.632Z,0
2023-02-24T01:35:53.503Z,0
2023-02-24T01:36:34.171Z,0
2023-02-24T01:37:14.745Z,0
2023-02-24T01:37:55.329Z,0
2023-02-24T01:38:35.948Z,0
2023-02-24T01:39:16.493Z,0
2023-02-24T01:39:57.020Z,0
2023-02-24T01:40:37.650Z,0
2023-02-24T01:41:18.578Z,0
2023-02-24T01:47:23.286Z,0
2023-02-24T01:48:03.746Z,0
2023-02-24T01:48:44.405Z,0
2023-02-24T01:49:24.967Z,0
2023-02-24T01:50:05.565Z,0
2023-02-24T01:50:46.069Z,0
2023-02-24T01:51:26.682Z,0
2023-02-24T01:52:07.217Z,0
2023-02-24T01:52:47.842Z,0
2023-02-24T01:58:53.399Z,0
2023-02-24T01:59:33.926Z,0
2023-02-24T02:00:14.659Z,0
2023-02-24T02:00:55.726Z,0
2023-02-24T02:01:36.467Z,0
2023-02-24T02:02:17.211Z,0
2023-02-24T02:02:57.557Z,0
2023-02-24T02:03:38.013Z,0
2023-02-24T02:09:43.310Z,0
2023-02-24T02:10:23.910Z,0
2023-02-24T02:11:04.543Z,0
2023-02-24T02:11:45.019Z,0
2023-02-24T02:12:25.603Z,0
2023-02-24T02:13:06.313Z,0
2023-02-24T02:13:46.961Z,0
2023-02-24T02:14:27.417Z,0
2023-02-24T02:15:07.999Z,0
2023-02-24T02:15:48.503Z,0
2023-02-24T02:21:13.135Z,0
2023-02-24T02:21:53.901Z,0
2023-02-24T02:22:34.389Z,0
2023-02-24T02:23:14.880Z,0
2023-02-24T02:23:55.585Z,0
2023-02-24T02:24:36.181Z,0
2023-02-24T02:25:16.674Z,0
2023-02-24T02:25:57.386Z,0
2023-02-24T02:26:37.876Z,0
2023-02-24T02:27:18.395Z,0
2023-02-24T02:32:43.657Z,0
2023-02-24T02:33:24.116Z,0
2023-02-24T02:34:04.711Z,0
2023-02-24T02:34:45.348Z,0
2023-02-24T02:35:25.892Z,0
2023-02-24T02:36:06.349Z,0
2023-02-24T02:36:46.931Z,0
2023-02-24T02:37:27.520Z,0
2023-02-24T02:38:08.010Z,0
2023-02-24T02:38:48.633Z,0
2023-02-24T02:44:13.291Z,0
2023-02-24T02:44:53.797Z,0
2023-02-24T02:45:34.362Z,0
2023-02-24T02:46:15.030Z,0
2023-02-24T02:46:55.312Z,0
2023-02-24T02:47:36.011Z,0
2023-02-24T02:48:16.495Z,0
2023-02-24T02:48:57.074Z,0
2023-02-24T02:49:37.641Z,0
2023-02-24T02:50:18.250Z,0
2023-02-24T02:56:23.613Z,0
2023-02-24T02:57:04.082Z,0
2023-02-24T02:57:44.624Z,0
2023-02-24T02:58:25.077Z,0
2023-02-24T02:59:05.678Z,0
2023-02-24T02:59:46.303Z,0
2023-02-24T03:00:26.836Z,0
2023-02-24T03:06:33.444Z,0
2023-02-24T03:07:14.017Z,0
2023-02-24T03:07:54.596Z,0
2023-02-24T03:08:35.072Z,0
2023-02-24T03:09:15.686Z,0
2023-02-24T03:09:56.303Z,0
2023-02-24T03:10:36.800Z,0
2023-02-24T03:11:17.440Z,0
2023-02-24T03:11:58.167Z,0
2023-02-24T03:18:03.451Z,0
2023-02-24T03:18:44.161Z,0
2023-02-24T03:19:24.777Z,0
2023-02-24T03:20:05.253Z,0
2023-02-24T03:20:45.973Z,0
2023-02-24T03:21:26.494Z,0
2023-02-24T03:22:06.993Z,0
2023-02-24T03:22:47.549Z,0
2023-02-24T03:23:28.137Z,0
2023-02-24T03:29:33.421Z,0
2023-02-24T03:30:14.591Z,0
2023-02-24T03:30:55.136Z,0
2023-02-24T03:31:35.879Z,0
2023-02-24T03:32:16.499Z,0
2023-02-24T03:32:56.965Z,0
2023-02-24T03:33:37.599Z,0
2023-02-24T03:34:18.167Z,0
2023-02-24T03:40:23.407Z,0
2023-02-24T03:41:04.022Z,0
2023-02-24T03:41:44.651Z,0
2023-02-24T03:42:25.256Z,0
2023-02-24T03:43:05.754Z,0
2023-02-24T03:43:46.378Z,0
2023-02-24T03:44:26.903Z,0
2023-02-24T03:45:07.513Z,0
2023-02-24T03:45:47.998Z,0
2023-02-24T03:51:53.376Z,0
2023-02-24T03:52:33.968Z,0
2023-02-24T03:53:14.614Z,0
2023-02-24T03:53:55.137Z,0
2023-02-24T03:54:35.625Z,0
2023-02-24T03:55:16.315Z,0
2023-02-24T03:55:56.799Z,0
2023-02-24T03:56:37.374Z,0
2023-02-24T03:57:17.981Z,0
2023-02-24T03:57:58.576Z,0
2023-02-24T04:03:23.328Z,0
2023-02-24T04:04:04.022Z,0
2023-02-24T04:04:44.705Z,0
2023-02-24T04:05:25.279Z,0
2023-02-24T04:06:05.657Z,0
2023-02-24T04:06:46.268Z,0
2023-02-24T04:07:26.881Z,0
2023-02-24T04:08:07.483Z,0
2023-02-24T04:08:48.126Z,0
2023-02-24T04:14:53.449Z,0
2023-02-24T04:15:33.946Z,0
2023-02-24T04:16:14.572Z,0
2023-02-24T04:16:54.989Z,0
2023-02-24T04:17:35.655Z,0
2023-02-24T04:18:16.244Z,0
2023-02-24T04:18:56.856Z,0
2023-02-24T04:19:37.388Z,0
2023-02-24T04:20:59.369Z,0
2023-02-24T04:24:58.896Z,0
2023-02-24T04:25:39.314Z,0
2023-02-24T04:26:19.807Z,0
2023-02-24T04:27:00.267Z,0
2023-02-24T04:27:40.813Z,0
2023-02-24T04:28:21.271Z,0
2023-02-24T04:29:01.745Z,0
2023-02-24T04:29:42.259Z,0
2023-02-24T04:30:22.717Z,0
2023-02-24T04:31:04.252Z,0
2023-02-24T04:37:08.518Z,0
2023-02-24T04:37:49.058Z,0
2023-02-24T04:38:29.473Z,0
2023-02-24T04:39:09.958Z,0
2023-02-24T04:39:50.430Z,0
2023-02-24T04:41:11.424Z,0
2023-02-24T04:41:51.868Z,0
2023-02-24T04:42:32.356Z,0
2023-02-24T04:43:12.865Z,0
2023-02-24T04:43:53.392Z,0
2023-02-24T04:44:33.905Z,0
2023-02-24T04:50:38.936Z,0
2023-02-24T04:51:19.752Z,0
2023-02-24T04:51:59.917Z,0
2023-02-24T04:52:40.376Z,0
2023-02-24T04:53:20.869Z,0
2023-02-24T04:54:01.368Z,0
2023-02-24T04:54:41.816Z,0
2023-02-24T04:55:22.351Z,0
2023-02-24T04:56:02.841Z,0
2023-02-24T04:56:43.371Z,0
2023-02-24T04:57:23.789Z,0
2023-02-24T05:04:08.739Z,0
2023-02-24T05:04:49.106Z,0
2023-02-24T05:05:29.543Z,0
2023-02-24T05:06:10.253Z,0
2023-02-24T05:06:50.627Z,0
2023-02-24T05:07:31.164Z,0
2023-02-24T05:08:11.663Z,0
2023-02-24T05:08:52.130Z,0
2023-02-24T05:09:32.702Z,0
2023-02-24T05:10:13.140Z,0
2023-02-24T05:18:19.016Z,0
2023-02-24T05:18:59.471Z,0
2023-02-24T05:19:40.017Z,0
2023-02-24T05:20:20.513Z,0
2023-02-24T05:21:01.921Z,0
2023-02-24T05:21:41.487Z,0
2023-02-24T05:22:21.994Z,0
2023-02-24T05:23:02.467Z,0
2023-02-24T05:23:42.899Z,0
2023-02-24T05:24:23.383Z,0
2023-02-24T05:25:03.874Z,0
2023-02-24T05:30:24.007Z,0
2023-02-24T05:31:04.619Z,0
2023-02-24T05:31:45.001Z,0
2023-02-24T05:32:25.612Z,0
2023-02-24T05:33:05.941Z,0
2023-02-24T05:33:46.434Z,0
2023-02-24T05:34:26.946Z,0
2023-02-24T05:35:07.444Z,0
2023-02-24T05:35:48.633Z,0
2023-02-24T05:42:33.757Z,0
2023-02-24T05:43:14.277Z,0
2023-02-24T05:43:54.773Z,0
2023-02-24T05:44:35.289Z,0
2023-02-24T05:45:15.866Z,0
2023-02-24T05:45:56.280Z,0
2023-02-24T05:46:36.878Z,0
2023-02-24T05:47:18.105Z,0
2023-02-24T05:47:58.593Z,0
2023-02-24T06:31:53.790Z,60
2023-02-24T06:32:35.006Z,68
2023-02-24T06:35:54.008Z,92
2023-02-24T06:36:34.528Z,96
2023-02-24T06:37:15.054Z,100
2023-02-24T06:37:55.561Z,100
2023-02-24T06:43:19.646Z,96
2023-02-24T06:44:00.253Z,104
2023-02-24T06:47:16.548Z,136
2023-02-24T06:47:57.921Z,144
2023-02-24T06:48:38.414Z,152
2023-02-24T06:49:19.080Z,160
2023-02-24T06:49:59.671Z,172
2023-02-24T06:54:05.830Z,204
2023-02-24T06:54:45.581Z,212
2023-02-24T07:01:10.701Z,320
2023-02-24T07:01:50.861Z,316
2023-02-24T07:02:31.714Z,300
2023-02-24T07:03:12.159Z,308
2023-02-24T07:03:53.970Z,328
2023-02-24T07:09:59.078Z,512
2023-02-24T07:10:39.852Z,400
2023-02-24T07:11:20.912Z,388
2023-02-24T07:12:01.099Z,520
2023-02-24T07:12:41.727Z,444
2023-02-24T07:13:22.248Z,312
2023-02-24T07:14:02.836Z,268
2023-02-24T07:14:44.250Z,256
2023-02-24T07:18:09.121Z,228
2023-02-24T07:18:49.634Z,212
2023-02-24T07:19:30.253Z,192
2023-02-24T07:20:10.781Z,176
2023-02-24T07:20:51.372Z,168
2023-02-24T07:21:32.859Z,160
2023-02-24T07:22:14.200Z,152
2023-02-24T07:24:59.771Z,144
2023-02-24T07:25:40.561Z,144
2023-02-24T07:26:23.934Z,140
2023-02-24T07:29:56.826Z,160
2023-02-24T07:32:20.715Z,172
2023-02-24T07:33:01.112Z,172
2023-02-24T07:33:41.697Z,172
2023-02-24T07:34:22.176Z,172
2023-02-24T07:35:02.691Z,176
2023-02-24T07:35:43.282Z,176
2023-02-24T07:36:23.755Z,176
2023-02-24T07:37:04.383Z,180
2023-02-24T07:37:44.919Z,180
2023-02-24T07:38:25.422Z,176
2023-02-24T07:45:10.734Z,180
2023-02-24T07:45:51.229Z,184
2023-02-24T07:46:31.883Z,188
2023-02-24T07:47:12.336Z,192
2023-02-24T07:47:52.852Z,200
2023-02-24T07:48:33.340Z,204
2023-02-24T07:49:13.882Z,208
2023-02-24T07:49:54.334Z,216
2023-02-24T07:50:34.918Z,224
2023-02-24T07:51:15.389Z,232
2023-02-24T07:58:00.695Z,252
2023-02-24T07:58:41.194Z,244
2023-02-24T07:59:21.752Z,244
2023-02-24T08:00:02.290Z,252
2023-02-24T08:00:42.927Z,260
2023-02-24T08:01:23.619Z,272
2023-02-24T08:02:05.221Z,288
2023-02-24T08:02:45.460Z,308
2023-02-24T08:09:30.755Z,448
2023-02-24T08:10:11.234Z,460
2023-02-24T08:10:51.737Z,476
2023-02-24T08:11:32.216Z,492
2023-02-24T08:12:12.814Z,504
2023-02-24T08:12:53.839Z,520
2023-02-24T08:13:34.059Z,520
2023-02-24T08:14:14.463Z,524
2023-02-24T08:14:55.018Z,520
2023-02-24T08:15:35.607Z,496
2023-02-24T08:22:20.864Z,552
2023-02-24T08:23:01.304Z,556
2023-02-24T08:23:41.820Z,528
2023-02-24T08:24:24.296Z,500
2023-02-24T08:25:02.848Z,496
2023-02-24T08:25:43.380Z,532
2023-02-24T08:26:23.905Z,556
2023-02-24T08:27:04.596Z,516
2023-02-24T08:27:44.970Z,508
2023-02-24T08:28:25.485Z,500
2023-02-24T08:35:10.840Z,744
2023-02-24T08:35:51.411Z,728
2023-02-24T08:36:31.932Z,664
2023-02-24T08:37:12.413Z,612
2023-02-24T08:37:52.922Z,580
2023-02-24T08:38:33.462Z,552
2023-02-24T08:40:46.807Z,500
2023-02-24T08:41:28.489Z,492
2023-02-24T08:42:09.759Z,492
2023-02-24T08:42:50.573Z,484
2023-02-24T08:46:31.223Z,452
2023-02-24T08:47:11.930Z,460
2023-02-24T08:47:52.495Z,460
2023-02-24T08:48:32.977Z,468
2023-02-24T08:49:14.437Z,488
2023-02-24T08:51:14.105Z,532
2023-02-24T08:51:55.143Z,532
2023-02-24T08:52:35.770Z,528
2023-02-24T08:53:16.271Z,516
2023-02-24T08:53:56.900Z,524
2023-02-24T08:54:39.452Z,544
2023-02-24T08:56:04.509Z,572
2023-02-24T08:56:44.632Z,584
2023-02-24T08:57:27.180Z,580
2023-02-24T09:02:12.624Z,588
2023-02-24T09:02:53.202Z,596
2023-02-24T09:05:06.414Z,684
2023-02-24T09:05:46.924Z,692
2023-02-24T09:06:27.474Z,660
2023-02-24T09:07:11.849Z,628
2023-02-24T09:07:49.622Z,604
2023-02-24T09:08:30.141Z,600
2023-02-24T09:09:10.675Z,596
2023-02-24T09:15:56.153Z,648
2023-02-24T09:16:36.726Z,668
2023-02-24T09:17:17.168Z,660
2023-02-24T09:17:57.686Z,644
2023-02-24T09:18:38.909Z,640
2023-02-24T09:19:19.506Z,608
2023-02-24T09:20:00.005Z,580
2023-02-24T09:20:41.540Z,576
2023-02-24T09:24:59.498Z,716
2023-02-24T09:25:40.180Z,724
2023-02-24T09:26:20.645Z,668
2023-02-24T09:27:01.171Z,616
2023-02-24T09:32:26.168Z,856
2023-02-24T09:33:06.694Z,812
2023-02-24T09:33:47.108Z,772
2023-02-24T09:34:27.654Z,768
2023-02-24T09:35:08.192Z,808
2023-02-24T09:35:48.735Z,852
2023-02-24T09:36:29.259Z,932
2023-02-24T09:37:09.854Z,1000
2023-02-24T09:40:38.973Z,1096
2023-02-24T09:41:19.395Z,1116
2023-02-24T09:41:59.761Z,1064
2023-02-24T09:42:40.656Z,996
2023-02-24T09:43:21.218Z,944
2023-02-24T09:44:01.755Z,916
2023-02-24T09:44:42.804Z,952
2023-02-24T09:45:23.448Z,920
2023-02-24T09:48:48.407Z,936
2023-02-24T09:52:27.728Z,996
2023-02-24T09:53:11.397Z,972
2023-02-24T09:53:48.706Z,1004
2023-02-24T09:54:29.184Z,1004
2023-02-24T09:55:12.632Z,1040
2023-02-24T09:59:58.103Z,1236
2023-02-24T10:02:57.143Z,1000
2023-02-24T10:06:36.941Z,976
2023-02-24T10:07:17.437Z,968
2023-02-24T10:07:57.953Z,940
2023-02-24T10:08:38.498Z,908
2023-02-24T10:09:18.981Z,868
2023-02-24T10:09:59.477Z,932
2023-02-24T10:10:40.063Z,996
2023-02-24T10:11:21.035Z,980
2023-02-24T10:12:01.218Z,920
2023-02-24T10:16:46.591Z,1060
2023-02-24T10:17:26.993Z,1080
2023-02-24T10:18:07.508Z,1052
2023-02-24T10:18:48.107Z,1068
2023-02-24T10:19:28.975Z,1092
2023-02-24T10:20:09.609Z,1108
2023-02-24T10:20:50.121Z,1096
2023-02-24T10:21:30.925Z,1080
2023-02-24T10:22:11.168Z,1148
2023-02-24T10:22:52.268Z,1152
2023-02-24T10:28:16.632Z,892
2023-02-24T10:28:57.141Z,900
2023-02-24T10:29:37.625Z,892
2023-02-24T10:30:18.251Z,900
2023-02-24T10:30:58.777Z,896
2023-02-24T10:31:39.480Z,896
2023-02-24T10:32:19.904Z,896
2023-02-24T10:33:00.401Z,904
2023-02-24T10:33:40.902Z,912
2023-02-24T10:34:23.808Z,916
2023-02-24T10:41:06.757Z,848
2023-02-24T10:41:47.418Z,784
2023-02-24T10:42:27.837Z,792
2023-02-24T10:43:08.304Z,788
2023-02-24T10:43:48.927Z,804
2023-02-24T10:44:29.405Z,812
2023-02-24T10:45:10.029Z,788
2023-02-24T10:45:50.520Z,784
2023-02-24T10:46:40.419Z,764
2023-02-24T10:47:11.766Z,756
2023-02-24T10:53:56.882Z,668
2023-02-24T10:54:38.315Z,660
2023-02-24T10:55:17.930Z,652
2023-02-24T10:55:58.451Z,640
2023-02-24T10:56:38.982Z,640
2023-02-24T10:57:19.543Z,648
2023-02-24T10:58:00.143Z,656
2023-02-24T10:58:40.586Z,672
2023-02-24T10:59:22.037Z,684
2023-02-24T11:05:26.897Z,728
2023-02-24T11:06:07.366Z,720
2023-02-24T11:06:48.078Z,712
2023-02-24T11:07:28.571Z,708
2023-02-24T11:08:09.095Z,704
2023-02-24T11:11:24.700Z,672
2023-02-24T11:12:05.744Z,664
2023-02-24T11:12:46.776Z,660
2023-02-24T11:13:27.790Z,660
2023-02-24T11:14:08.799Z,648
2023-02-24T11:14:49.873Z,640
2023-02-24T11:18:15.091Z,600
2023-02-24T11:18:56.082Z,588
2023-02-24T11:19:37.129Z,576
2023-02-24T11:20:18.294Z,556
2023-02-24T11:20:59.322Z,532
2023-02-24T11:23:44.694Z,436
2023-02-24T11:24:25.771Z,420
2023-02-24T11:25:06.906Z,408
2023-02-24T11:25:47.909Z,396
2023-02-24T11:26:28.991Z,392
2023-02-24T11:29:54.571Z,360
2023-02-24T11:30:35.708Z,356
2023-02-24T11:31:16.853Z,348
2023-02-24T11:34:46.077Z,332
2023-02-24T11:35:26.652Z,332
2023-02-24T11:36:07.635Z,332
2023-02-24T11:36:47.761Z,324
2023-02-24T11:37:28.284Z,324
2023-02-24T11:38:09.317Z,316
2023-02-24T11:41:27.817Z,328
2023-02-24T11:42:08.369Z,328
2023-02-24T11:42:48.862Z,336
2023-02-24T11:43:29.403Z,344
2023-02-24T11:44:11.292Z,348
2023-02-24T11:44:50.469Z,340
2023-02-24T11:45:30.985Z,352
2023-02-24T11:46:11.571Z,348
2023-02-24T11:46:52.055Z,332
2023-02-24T11:47:32.626Z,324
2023-02-24T11:53:37.649Z,276
2023-02-24T12:35:20.644Z,652
2023-02-24T12:36:01.129Z,640
2023-02-24T12:36:41.608Z,628
2023-02-24T12:37:22.141Z,608
2023-02-24T12:38:02.662Z,592
2023-02-24T12:38:43.177Z,580
2023-02-24T12:39:23.791Z,564
2023-02-24T12:40:04.259Z,552
2023-02-24T12:40:44.775Z,548
2023-02-24T12:41:25.360Z,560
2023-02-24T12:45:50.519Z,568
2023-02-24T12:46:31.019Z,532
2023-02-24T12:47:11.473Z,508
2023-02-24T12:47:51.953Z,496
2023-02-24T12:48:32.437Z,496
2023-02-24T12:49:12.976Z,484
2023-02-24T12:49:53.431Z,488
2023-02-24T12:50:33.939Z,480
2023-02-24T12:51:14.564Z,464
2023-02-24T12:51:55.070Z,464
2023-02-24T12:58:40.205Z,388
2023-02-24T12:59:20.636Z,384
2023-02-24T13:00:01.130Z,380
2023-02-24T13:00:41.763Z,372
2023-02-24T13:01:22.491Z,360
2023-02-24T13:02:02.637Z,352
2023-02-24T13:02:43.152Z,344
2023-02-24T13:03:23.624Z,332
2023-02-24T13:04:04.190Z,324
2023-02-24T13:04:44.717Z,312
2023-02-24T13:05:25.813Z,300
2023-02-24T13:12:10.505Z,352
2023-02-24T13:12:51.042Z,360
2023-02-24T13:13:31.537Z,356
2023-02-24T13:14:12.053Z,344
2023-02-24T13:14:52.583Z,340
2023-02-24T13:15:33.101Z,324
2023-02-24T13:16:13.677Z,324
2023-02-24T13:16:54.211Z,348
2023-02-24T13:17:34.707Z,352
2023-02-24T13:18:15.237Z,352
2023-02-24T13:25:00.433Z,356
2023-02-24T13:25:40.960Z,364
2023-02-24T13:26:21.448Z,340
2023-02-24T13:27:01.947Z,316
2023-02-24T13:27:42.536Z,324
2023-02-24T13:28:23.208Z,324
2023-02-24T13:29:03.685Z,312
2023-02-24T13:29:44.179Z,312
2023-02-24T13:30:24.718Z,336
2023-02-24T13:31:05.207Z,344
2023-02-24T13:37:50.245Z,340
2023-02-24T13:38:30.742Z,348
2023-02-24T13:39:11.266Z,352
2023-02-24T13:39:51.736Z,340
2023-02-24T13:40:32.311Z,336
2023-02-24T13:41:12.852Z,312
2023-02-24T13:41:53.340Z,312
2023-02-24T13:42:33.895Z,316
2023-02-24T13:43:14.421Z,324
2023-02-24T13:43:54.866Z,324
2023-02-24T13:44:35.337Z,328
2023-02-24T13:51:20.821Z,332
2023-02-24T13:52:00.918Z,348
2023-02-24T13:52:41.449Z,340
2023-02-24T13:53:21.939Z,340
2023-02-24T13:54:02.481Z,332
2023-02-24T13:54:42.968Z,356
2023-02-24T13:55:23.461Z,360
2023-02-24T13:56:03.990Z,344
2023-02-24T13:56:44.476Z,316
2023-02-24T13:57:24.989Z,312
2023-02-24T14:04:50.502Z,288
2023-02-24T14:05:31.047Z,260
2023-02-24T14:06:11.519Z,272
2023-02-24T14:06:52.020Z,280
2023-02-24T14:07:32.553Z,268
2023-02-24T14:08:13.024Z,256
2023-02-24T14:08:53.480Z,232
2023-02-24T14:09:33.944Z,220
2023-02-24T14:10:14.469Z,220
2023-02-24T14:10:54.925Z,220
2023-02-24T14:11:35.466Z,236
2023-02-24T14:18:20.350Z,244
2023-02-24T14:19:00.802Z,240
2023-02-24T14:19:41.288Z,236
2023-02-24T14:20:21.758Z,232
2023-02-24T14:21:02.233Z,232
2023-02-24T14:21:42.749Z,252
2023-02-24T14:22:23.289Z,240
2023-02-24T14:23:03.779Z,216
2023-02-24T14:23:44.296Z,204
2023-02-24T14:24:24.866Z,216
2023-02-24T14:25:05.344Z,220
2023-02-24T14:32:47.597Z,176
2023-02-24T14:33:27.919Z,200
2023-02-24T14:34:08.413Z,220
2023-02-24T14:34:48.909Z,200
2023-02-24T14:35:29.460Z,208
2023-02-24T14:36:09.859Z,208
2023-02-24T14:36:50.396Z,212
2023-02-24T14:37:30.831Z,180
2023-02-24T14:38:11.354Z,164
2023-02-24T14:38:51.861Z,188
2023-02-24T14:39:32.291Z,196
2023-02-24T14:46:17.412Z,280
2023-02-24T14:46:57.853Z,276
2023-02-24T14:47:38.309Z,260
2023-02-24T14:48:18.847Z,296
2023-02-24T14:48:59.319Z,300
2023-02-24T14:49:39.812Z,272
2023-02-24T14:52:53.587Z,244
2023-02-24T14:53:34.030Z,256
2023-02-24T14:54:14.620Z,260
2023-02-24T14:54:55.129Z,260
2023-02-24T14:55:35.599Z,236
2023-02-24T14:56:16.113Z,232
2023-02-24T14:56:56.620Z,244
2023-02-24T14:57:37.116Z,236
2023-02-24T14:58:17.598Z,244
2023-02-24T14:58:58.124Z,236
2023-02-24T14:59:38.612Z,212
2023-02-24T15:05:21.334Z,244
2023-02-24T15:10:51.296Z,296
2023-02-24T15:11:32.066Z,288
2023-02-24T15:12:13.173Z,264
2023-02-24T15:12:53.664Z,264
2023-02-24T15:14:58.191Z,240
2023-02-24T15:15:40.232Z,228
2023-02-24T15:19:51.517Z,192
2023-02-24T15:22:09.645Z,164
2023-02-24T15:22:50.151Z,164
2023-02-24T15:23:30.634Z,164
2023-02-24T15:24:11.142Z,184
2023-02-24T15:24:51.600Z,176
2023-02-24T15:25:42.086Z,176
2023-02-24T15:26:12.664Z,184
2023-02-24T15:26:53.072Z,168
2023-02-24T15:27:33.570Z,160
2023-02-24T15:28:14.117Z,144
2023-02-24T15:28:54.550Z,136
2023-02-24T15:33:34.407Z,172
2023-02-24T15:34:14.993Z,180
2023-02-24T15:34:55.467Z,188
2023-02-24T15:35:35.984Z,184
2023-02-24T15:36:16.473Z,172
2023-02-24T15:36:56.940Z,164
2023-02-24T15:37:37.467Z,140
2023-02-24T15:38:17.965Z,140
2023-02-24T15:46:44.355Z,96
2023-02-24T15:47:25.016Z,104
2023-02-24T15:48:06.715Z,108
2023-02-24T15:48:47.658Z,124
2023-02-24T15:52:50.890Z,184
2023-02-24T15:53:31.411Z,188
2023-02-24T15:54:12.066Z,196
2023-02-24T15:54:53.324Z,200
2023-02-24T15:55:33.710Z,196
2023-02-24T15:56:14.205Z,156
2023-02-24T15:56:54.712Z,144
2023-02-24T15:57:35.261Z,144
2023-02-24T15:58:16.829Z,156
2023-02-24T16:03:41.349Z,112
2023-02-24T16:04:22.091Z,104
2023-02-24T16:05:02.335Z,112
2023-02-24T16:05:42.885Z,128
2023-02-24T16:06:23.596Z,132
2023-02-24T16:07:04.215Z,124
2023-02-24T16:07:44.597Z,124
2023-02-24T16:08:25.097Z,140
2023-02-24T16:09:05.651Z,140
2023-02-24T16:12:31.056Z,76
2023-02-24T16:13:11.533Z,76
2023-02-24T16:13:52.065Z,72
2023-02-24T16:14:32.575Z,76
2023-02-24T16:15:15.193Z,72
2023-02-24T16:15:55.824Z,72
2023-02-24T16:19:17.380Z,64
2023-02-24T16:19:57.882Z,56
2023-02-24T16:20:38.373Z,64
2023-02-24T16:21:18.967Z,52
2023-02-24T16:21:59.354Z,48
2023-02-24T16:22:39.827Z,56
2023-02-24T16:23:20.345Z,56
2023-02-24T16:24:00.834Z,56
2023-02-24T16:24:41.330Z,52
2023-02-24T16:25:21.820Z,48
2023-02-24T16:26:02.304Z,44
2023-02-24T16:29:10.772Z,44
2023-02-24T16:29:51.232Z,40
2023-02-24T16:30:31.813Z,32
2023-02-24T16:31:12.321Z,32
2023-02-24T16:31:52.881Z,32
2023-02-24T16:32:33.390Z,32
2023-02-24T16:33:13.910Z,36
2023-02-24T16:33:55.737Z,28
2023-02-24T16:34:34.900Z,24
2023-02-24T16:35:15.386Z,20
2023-02-24T16:41:20.593Z,28
2023-02-24T16:42:01.012Z,32
2023-02-24T16:42:41.506Z,28
2023-02-24T16:43:22.031Z,32
2023-02-24T16:44:02.639Z,32
2023-02-24T16:44:43.189Z,28
2023-02-24T16:45:23.678Z,24
2023-02-24T16:46:04.298Z,20
2023-02-24T16:46:44.672Z,24
2023-02-24T16:47:25.214Z,16
2023-02-24T16:48:05.768Z,24
2023-02-24T16:54:50.724Z,4
2023-02-24T16:55:31.199Z,4
2023-02-24T16:56:11.786Z,4
2023-02-24T16:56:52.219Z,4
2023-02-24T16:57:32.719Z,4
2023-02-24T16:58:13.247Z,4
2023-02-24T17:01:27.064Z,4
2023-02-24T17:02:07.566Z,4
2023-02-24T17:02:48.063Z,0
2023-02-24T17:03:28.652Z,0
2023-02-24T17:04:09.331Z,4
2023-02-24T17:04:49.745Z,4
2023-02-24T17:05:30.375Z,4
2023-02-24T17:06:10.852Z,4
2023-02-24T17:06:51.320Z,4
2023-02-24T17:07:31.816Z,4
2023-02-24T17:14:16.911Z,4
2023-02-24T17:14:57.417Z,4
2023-02-24T17:15:37.902Z,4
2023-02-24T17:16:19.623Z,4
2023-02-24T17:17:00.004Z,4
2023-02-24T17:17:40.491Z,4
2023-02-24T17:20:54.296Z,0
2023-02-24T17:21:34.788Z,0
2023-02-24T17:22:15.434Z,0
2023-02-24T17:22:55.979Z,0
2023-02-24T17:23:36.580Z,0
2023-02-24T17:24:17.101Z,0
2023-02-24T17:24:57.617Z,0
2023-02-24T17:25:38.142Z,0
2023-02-24T17:26:18.643Z,0
2023-02-24T17:26:59.140Z,0
2023-02-24T17:33:44.121Z,0
2023-02-24T17:34:24.746Z,0
2023-02-24T17:35:06.259Z,0
2023-02-24T17:35:46.689Z,0
2023-02-24T17:36:27.220Z,0
2023-02-24T17:39:57.325Z,0
2023-02-24T17:40:39.036Z,0
2023-02-24T17:41:19.565Z,0
2023-02-24T17:42:00.047Z,0
2023-02-24T17:42:40.503Z,0
2023-02-24T17:43:21.059Z,0
2023-02-24T17:44:01.635Z,0
2023-02-24T17:44:42.093Z,0
2023-02-24T17:50:47.334Z,0
2023-02-24T17:51:27.810Z,0
2023-02-24T17:52:08.322Z,0
2023-02-24T17:52:48.847Z,0
2023-02-24T17:53:29.525Z,0
2023-02-24T17:54:10.025Z,0
2023-02-24T17:54:50.556Z,0
2023-02-24T18:33:52.914Z,0
2023-02-24T18:34:33.532Z,0
2023-02-24T18:35:14.243Z,0
2023-02-24T18:35:54.786Z,0
2023-02-24T18:36:35.378Z,0
2023-02-24T18:37:15.831Z,0
2023-02-24T18:37:56.391Z,0
2023-02-24T18:38:37.085Z,0
2023-02-24T18:39:17.667Z,0
2023-02-24T18:44:42.683Z,0
2023-02-24T18:45:23.309Z,0
2023-02-24T18:46:03.984Z,0
2023-02-24T18:46:44.564Z,0
2023-02-24T18:48:59.277Z,0
2023-02-24T18:49:40.539Z,0
2023-02-24T18:50:21.333Z,0
2023-02-24T18:51:02.527Z,0
2023-02-24T18:57:47.573Z,0
2023-02-24T18:58:29.253Z,0
2023-02-24T18:59:09.808Z,0
2023-02-24T18:59:51.151Z,0
2023-02-24T19:00:31.666Z,0
2023-02-24T19:01:12.216Z,0
2023-02-24T19:04:51.399Z,0
2023-02-24T19:05:38.355Z,0
2023-02-24T19:06:12.597Z,0
2023-02-24T19:06:53.049Z,0
2023-02-24T19:07:34.648Z,0
2023-02-24T19:08:15.184Z,0
2023-02-24T19:08:55.736Z,0
2023-02-24T19:09:36.234Z,0
2023-02-24T19:15:01.756Z,0
2023-02-24T19:15:42.249Z,0
2023-02-24T19:16:23.148Z,0
2023-02-24T19:17:03.265Z,0
2023-02-24T19:17:43.708Z,0
2023-02-24T19:18:24.220Z,0
2023-02-24T19:19:04.690Z,0
2023-02-24T19:19:45.268Z,0
2023-02-24T19:20:26.227Z,0
2023-02-24T19:26:31.259Z,0
2023-02-24T19:27:12.038Z,0
2023-02-24T19:27:53.647Z,0
2023-02-24T19:28:34.257Z,0
2023-02-24T19:29:14.637Z,0
2023-02-24T19:29:55.181Z,0
2023-02-24T19:30:35.785Z,0
2023-02-24T19:31:16.397Z,0
2023-02-24T19:34:42.344Z,0
2023-02-24T19:35:21.594Z,0
2023-02-24T19:36:02.892Z,0
2023-02-24T19:37:23.905Z,0
2023-02-24T19:38:04.472Z,0
2023-02-24T19:38:44.977Z,0
2023-02-24T19:39:25.628Z,0
2023-02-24T19:40:06.057Z,0
2023-02-24T19:46:11.084Z,0
2023-02-24T19:46:51.550Z,0
2023-02-24T19:47:32.270Z,0
2023-02-24T19:48:12.735Z,0
2023-02-24T19:48:53.280Z,0
2023-02-24T19:49:33.842Z,0
2023-02-24T19:50:14.243Z,0
2023-02-24T19:50:55.000Z,0
2023-02-24T19:51:35.644Z,0
2023-02-24T19:52:16.093Z,0
2023-02-24T19:56:21.747Z,0
2023-02-24T19:57:01.939Z,0
2023-02-24T19:57:42.483Z,0
2023-02-24T19:58:22.945Z,0
2023-02-24T19:59:03.536Z,0
2023-02-24T19:59:43.948Z,0
2023-02-24T20:00:24.501Z,0
2023-02-24T20:01:06.340Z,0
2023-02-24T20:01:45.740Z,0
2023-02-24T20:02:26.242Z,0
2023-02-24T20:07:51.500Z,0
2023-02-24T20:08:32.187Z,0
2023-02-24T20:09:12.627Z,0
2023-02-24T20:09:53.135Z,0
2023-02-24T20:10:33.616Z,0
2023-02-24T20:11:14.146Z,0
2023-02-24T20:11:54.902Z,0
2023-02-24T20:12:35.676Z,0
2023-02-24T20:13:16.161Z,0
2023-02-24T20:23:52.649Z,0
2023-02-24T20:24:33.008Z,0
2023-02-24T20:25:13.519Z,0
2023-02-24T20:25:54.015Z,0
2023-02-24T20:26:34.528Z,0